sensor_id;sensor_type;location;lat;lon;timestamp;P1;durP1;ratioP1;P2;durP2;ratioP2
18455;SDS011;9357;49.900;8.208;2022-11-15T00:00:53;13.73;;;10.15;;
18455;SDS011;9357;49.900;8.208;2022-11-15T00:02:26;13.50;;;9.40;;
18455;SDS011;9357;49.900;8.208;2022-11-15T00:03:58;11.38;;;9.30;;
18455;SDS011;9357;49.900;8.208;2022-11-15T00:05:33;17.45;;;10.18;;
18455;SDS011;9357;49.900;8.208;2022-11-15T00:07:08;12.57;;;9.48;;
18455;SDS011;9357;49.900;8.208;2022-11-15T00:08:57;13.52;;;9.50;;
18455;SDS011;9357;49.900;8.208;2022-11-15T00:10:31;13.45;;;10.07;;
18455;SDS011;9357;49.900;8.208;2022-11-15T00:12:03;13.43;;;10.13;;
18455;SDS011;9357;49.900;8.208;2022-11-15T00:13:36;13.70;;;10.23;;
18455;SDS011;9357;49.900;8.208;2022-11-15T00:15:08;15.07;;;10.38;;
18455;SDS011;9357;49.900;8.208;2022-11-15T00:16:40;13.85;;;9.93;;
18455;SDS011;9357;49.900;8.208;2022-11-15T00:18:14;12.38;;;9.48;;
18455;SDS011;9357;49.900;8.208;2022-11-15T00:19:47;13.02;;;9.63;;
18455;SDS011;9357;49.900;8.208;2022-11-15T00:21:20;16.25;;;10.13;;
18455;SDS011;9357;49.900;8.208;2022-11-15T00:22:55;13.32;;;9.35;;
18455;SDS011;9357;49.900;8.208;2022-11-15T00:24:27;13.20;;;9.88;;
18455;SDS011;9357;49.900;8.208;2022-11-15T00:26:00;12.77;;;9.15;;
18455;SDS011;9357;49.900;8.208;2022-11-15T00:27:32;10.98;;;8.73;;
18455;SDS011;9357;49.900;8.208;2022-11-15T00:29:04;13.52;;;9.88;;
18455;SDS011;9357;49.900;8.208;2022-11-15T00:30:37;11.80;;;9.38;;
18455;SDS011;9357;49.900;8.208;2022-11-15T00:32:09;13.18;;;9.73;;
18455;SDS011;9357;49.900;8.208;2022-11-15T00:33:42;14.43;;;9.48;;
18455;SDS011;9357;49.900;8.208;2022-11-15T00:35:15;12.65;;;9.80;;
18455;SDS011;9357;49.900;8.208;2022-11-15T00:36:48;13.63;;;9.82;;
18455;SDS011;9357;49.900;8.208;2022-11-15T00:38:22;12.77;;;9.88;;
18455;SDS011;9357;49.900;8.208;2022-11-15T00:39:54;11.57;;;9.88;;
18455;SDS011;9357;49.900;8.208;2022-11-15T00:41:27;13.30;;;10.50;;
18455;SDS011;9357;49.900;8.208;2022-11-15T00:43:00;13.90;;;10.80;;
18455;SDS011;9357;49.900;8.208;2022-11-15T00:44:33;13.48;;;10.38;;
18455;SDS011;9357;49.900;8.208;2022-11-15T00:46:05;13.90;;;10.07;;
18455;SDS011;9357;49.900;8.208;2022-11-15T00:47:39;13.90;;;10.40;;
18455;SDS011;9357;49.900;8.208;2022-11-15T00:49:11;12.77;;;9.68;;
18455;SDS011;9357;49.900;8.208;2022-11-15T00:50:44;12.00;;;10.13;;
18455;SDS011;9357;49.900;8.208;2022-11-15T00:52:16;12.23;;;10.70;;
18455;SDS011;9357;49.900;8.208;2022-11-15T00:53:50;13.57;;;10.43;;
18455;SDS011;9357;49.900;8.208;2022-11-15T00:55:23;12.38;;;10.18;;
18455;SDS011;9357;49.900;8.208;2022-11-15T00:56:55;13.32;;;10.27;;
18455;SDS011;9357;49.900;8.208;2022-11-15T00:58:27;12.27;;;9.38;;
18455;SDS011;9357;49.900;8.208;2022-11-15T00:59:59;14.32;;;9.88;;
18455;SDS011;9357;49.900;8.208;2022-11-15T01:01:32;11.37;;;9.27;;
18455;SDS011;9357;49.900;8.208;2022-11-15T01:03:04;14.02;;;10.02;;
18455;SDS011;9357;49.900;8.208;2022-11-15T01:04:37;12.03;;;9.77;;
18455;SDS011;9357;49.900;8.208;2022-11-15T01:06:10;13.27;;;10.47;;
18455;SDS011;9357;49.900;8.208;2022-11-15T01:07:43;13.57;;;9.63;;
18455;SDS011;9357;49.900;8.208;2022-11-15T01:09:17;12.73;;;9.93;;
18455;SDS011;9357;49.900;8.208;2022-11-15T01:10:50;10.93;;;9.57;;
18455;SDS011;9357;49.900;8.208;2022-11-15T01:12:23;14.32;;;10.10;;
18455;SDS011;9357;49.900;8.208;2022-11-15T01:13:55;13.15;;;9.55;;
18455;SDS011;9357;49.900;8.208;2022-11-15T01:15:28;12.67;;;10.00;;
18455;SDS011;9357;49.900;8.208;2022-11-15T01:17:01;13.13;;;10.00;;
18455;SDS011;9357;49.900;8.208;2022-11-15T01:18:33;12.80;;;9.82;;
18455;SDS011;9357;49.900;8.208;2022-11-15T01:20:06;13.60;;;10.20;;
18455;SDS011;9357;49.900;8.208;2022-11-15T01:21:40;14.23;;;10.40;;
18455;SDS011;9357;49.900;8.208;2022-11-15T01:23:12;15.48;;;10.52;;
18455;SDS011;9357;49.900;8.208;2022-11-15T01:24:45;14.27;;;10.57;;
18455;SDS011;9357;49.900;8.208;2022-11-15T01:26:18;12.70;;;10.18;;
18455;SDS011;9357;49.900;8.208;2022-11-15T01:27:51;12.43;;;9.77;;
18455;SDS011;9357;49.900;8.208;2022-11-15T01:29:24;12.25;;;9.93;;
18455;SDS011;9357;49.900;8.208;2022-11-15T01:30:57;14.43;;;10.18;;
18455;SDS011;9357;49.900;8.208;2022-11-15T01:32:30;14.45;;;9.43;;
18455;SDS011;9357;49.900;8.208;2022-11-15T01:34:03;13.35;;;9.77;;
18455;SDS011;9357;49.900;8.208;2022-11-15T01:35:38;11.10;;;9.07;;
18455;SDS011;9357;49.900;8.208;2022-11-15T01:37:11;11.77;;;8.73;;
18455;SDS011;9357;49.900;8.208;2022-11-15T01:38:43;14.20;;;9.67;;
18455;SDS011;9357;49.900;8.208;2022-11-15T01:40:18;14.30;;;9.27;;
18455;SDS011;9357;49.900;8.208;2022-11-15T01:41:50;14.40;;;9.85;;
18455;SDS011;9357;49.900;8.208;2022-11-15T01:43:24;13.13;;;9.77;;
18455;SDS011;9357;49.900;8.208;2022-11-15T01:44:58;12.47;;;8.97;;
18455;SDS011;9357;49.900;8.208;2022-11-15T01:46:32;11.55;;;9.15;;
18455;SDS011;9357;49.900;8.208;2022-11-15T01:48:07;11.50;;;8.85;;
18455;SDS011;9357;49.900;8.208;2022-11-15T01:49:45;10.97;;;8.93;;
18455;SDS011;9357;49.900;8.208;2022-11-15T01:51:27;10.60;;;8.50;;
18455;SDS011;9357;49.900;8.208;2022-11-15T01:53:03;11.32;;;8.77;;
18455;SDS011;9357;49.900;8.208;2022-11-15T01:54:35;11.45;;;8.55;;
18455;SDS011;9357;49.900;8.208;2022-11-15T01:56:10;11.83;;;9.03;;
18455;SDS011;9357;49.900;8.208;2022-11-15T01:57:46;11.18;;;8.45;;
18455;SDS011;9357;49.900;8.208;2022-11-15T01:59:20;11.93;;;7.50;;
18455;SDS011;9357;49.900;8.208;2022-11-15T02:00:54;9.80;;;7.67;;
18455;SDS011;9357;49.900;8.208;2022-11-15T02:02:27;11.00;;;8.00;;
18455;SDS011;9357;49.900;8.208;2022-11-15T02:03:59;10.05;;;7.82;;
18455;SDS011;9357;49.900;8.208;2022-11-15T02:05:36;11.83;;;8.53;;
18455;SDS011;9357;49.900;8.208;2022-11-15T02:07:10;9.40;;;8.33;;
18455;SDS011;9357;49.900;8.208;2022-11-15T02:08:44;10.30;;;8.43;;
18455;SDS011;9357;49.900;8.208;2022-11-15T02:10:18;11.13;;;8.63;;
18455;SDS011;9357;49.900;8.208;2022-11-15T02:11:53;11.55;;;8.93;;
18455;SDS011;9357;49.900;8.208;2022-11-15T02:13:27;12.93;;;9.37;;
18455;SDS011;9357;49.900;8.208;2022-11-15T02:15:01;13.70;;;9.10;;
18455;SDS011;9357;49.900;8.208;2022-11-15T02:16:38;10.77;;;9.13;;
18455;SDS011;9357;49.900;8.208;2022-11-15T02:18:21;14.82;;;10.38;;
18455;SDS011;9357;49.900;8.208;2022-11-15T02:20:08;14.90;;;11.03;;
18455;SDS011;9357;49.900;8.208;2022-11-15T02:22:10;14.50;;;10.88;;
18455;SDS011;9357;49.900;8.208;2022-11-15T02:26:14;14.88;;;10.80;;
18455;SDS011;9357;49.900;8.208;2022-11-15T02:30:20;12.73;;;10.93;;
18455;SDS011;9357;49.900;8.208;2022-11-15T02:31:55;14.88;;;11.38;;
18455;SDS011;9357;49.900;8.208;2022-11-15T02:33:35;15.75;;;11.50;;
18455;SDS011;9357;49.900;8.208;2022-11-15T02:35:16;15.10;;;11.25;;
18455;SDS011;9357;49.900;8.208;2022-11-15T02:36:59;13.93;;;10.80;;
18455;SDS011;9357;49.900;8.208;2022-11-15T02:38:40;15.07;;;10.93;;
18455;SDS011;9357;49.900;8.208;2022-11-15T02:40:22;13.85;;;10.32;;
18455;SDS011;9357;49.900;8.208;2022-11-15T02:42:02;12.55;;;11.00;;
18455;SDS011;9357;49.900;8.208;2022-11-15T02:44:00;14.00;;;11.32;;
18455;SDS011;9357;49.900;8.208;2022-11-15T02:45:37;13.40;;;10.53;;
18455;SDS011;9357;49.900;8.208;2022-11-15T02:47:11;12.48;;;10.25;;
18455;SDS011;9357;49.900;8.208;2022-11-15T02:48:48;15.38;;;9.82;;
18455;SDS011;9357;49.900;8.208;2022-11-15T02:50:21;13.20;;;10.23;;
18455;SDS011;9357;49.900;8.208;2022-11-15T02:51:58;15.00;;;9.97;;
18455;SDS011;9357;49.900;8.208;2022-11-15T02:53:30;13.10;;;10.20;;
18455;SDS011;9357;49.900;8.208;2022-11-15T02:55:03;12.73;;;9.77;;
18455;SDS011;9357;49.900;8.208;2022-11-15T02:56:36;12.75;;;9.85;;
18455;SDS011;9357;49.900;8.208;2022-11-15T02:58:19;12.65;;;10.43;;
18455;SDS011;9357;49.900;8.208;2022-11-15T03:00:10;12.57;;;9.75;;
18455;SDS011;9357;49.900;8.208;2022-11-15T03:01:50;13.20;;;9.63;;
18455;SDS011;9357;49.900;8.208;2022-11-15T03:03:37;13.07;;;9.70;;
18455;SDS011;9357;49.900;8.208;2022-11-15T03:05:23;12.65;;;9.70;;
18455;SDS011;9357;49.900;8.208;2022-11-15T03:07:04;13.68;;;9.45;;
18455;SDS011;9357;49.900;8.208;2022-11-15T03:08:40;10.98;;;9.60;;
18455;SDS011;9357;49.900;8.208;2022-11-15T03:10:21;13.93;;;9.90;;
18455;SDS011;9357;49.900;8.208;2022-11-15T03:11:58;12.27;;;9.63;;
18455;SDS011;9357;49.900;8.208;2022-11-15T03:13:36;11.15;;;9.05;;
18455;SDS011;9357;49.900;8.208;2022-11-15T03:15:16;12.77;;;9.55;;
18455;SDS011;9357;49.900;8.208;2022-11-15T03:16:56;11.00;;;9.77;;
18455;SDS011;9357;49.900;8.208;2022-11-15T03:18:35;11.85;;;10.35;;
18455;SDS011;9357;49.900;8.208;2022-11-15T03:20:11;12.02;;;9.55;;
18455;SDS011;9357;49.900;8.208;2022-11-15T03:21:46;13.43;;;9.85;;
18455;SDS011;9357;49.900;8.208;2022-11-15T03:23:20;12.55;;;9.65;;
18455;SDS011;9357;49.900;8.208;2022-11-15T03:24:54;13.70;;;10.07;;
18455;SDS011;9357;49.900;8.208;2022-11-15T03:26:30;12.10;;;10.23;;
18455;SDS011;9357;49.900;8.208;2022-11-15T03:28:05;13.55;;;9.52;;
18455;SDS011;9357;49.900;8.208;2022-11-15T03:29:41;13.98;;;9.80;;
18455;SDS011;9357;49.900;8.208;2022-11-15T03:31:18;13.05;;;9.57;;
18455;SDS011;9357;49.900;8.208;2022-11-15T03:33:18;15.40;;;9.77;;
18455;SDS011;9357;49.900;8.208;2022-11-15T03:34:54;12.35;;;9.50;;
18455;SDS011;9357;49.900;8.208;2022-11-15T03:36:29;12.45;;;9.48;;
18455;SDS011;9357;49.900;8.208;2022-11-15T03:38:06;10.88;;;8.82;;
18455;SDS011;9357;49.900;8.208;2022-11-15T03:39:44;12.90;;;9.27;;
18455;SDS011;9357;49.900;8.208;2022-11-15T03:41:16;14.13;;;9.13;;
18455;SDS011;9357;49.900;8.208;2022-11-15T03:42:57;12.52;;;8.98;;
18455;SDS011;9357;49.900;8.208;2022-11-15T03:44:38;10.93;;;9.07;;
18455;SDS011;9357;49.900;8.208;2022-11-15T03:46:17;12.82;;;9.15;;
18455;SDS011;9357;49.900;8.208;2022-11-15T03:47:58;10.90;;;9.05;;
18455;SDS011;9357;49.900;8.208;2022-11-15T03:49:35;10.75;;;8.98;;
18455;SDS011;9357;49.900;8.208;2022-11-15T03:51:10;12.27;;;9.40;;
18455;SDS011;9357;49.900;8.208;2022-11-15T03:52:44;11.63;;;8.93;;
18455;SDS011;9357;49.900;8.208;2022-11-15T03:54:18;13.35;;;9.57;;
18455;SDS011;9357;49.900;8.208;2022-11-15T03:55:49;10.98;;;8.93;;
18455;SDS011;9357;49.900;8.208;2022-11-15T03:57:22;13.88;;;9.20;;
18455;SDS011;9357;49.900;8.208;2022-11-15T03:58:55;12.75;;;8.98;;
18455;SDS011;9357;49.900;8.208;2022-11-15T04:00:28;9.75;;;8.48;;
18455;SDS011;9357;49.900;8.208;2022-11-15T04:02:01;10.95;;;8.68;;
18455;SDS011;9357;49.900;8.208;2022-11-15T04:03:34;12.40;;;9.05;;
18455;SDS011;9357;49.900;8.208;2022-11-15T04:05:08;11.00;;;9.05;;
18455;SDS011;9357;49.900;8.208;2022-11-15T04:06:41;11.77;;;8.73;;
18455;SDS011;9357;49.900;8.208;2022-11-15T04:08:14;10.77;;;8.88;;
18455;SDS011;9357;49.900;8.208;2022-11-15T04:09:46;10.18;;;8.15;;
18455;SDS011;9357;49.900;8.208;2022-11-15T04:11:34;11.98;;;8.38;;
18455;SDS011;9357;49.900;8.208;2022-11-15T04:13:07;10.43;;;8.63;;
18455;SDS011;9357;49.900;8.208;2022-11-15T04:14:40;11.32;;;8.32;;
18455;SDS011;9357;49.900;8.208;2022-11-15T04:16:31;11.45;;;8.60;;
18455;SDS011;9357;49.900;8.208;2022-11-15T04:18:07;10.52;;;8.43;;
18455;SDS011;9357;49.900;8.208;2022-11-15T04:19:40;10.05;;;7.78;;
18455;SDS011;9357;49.900;8.208;2022-11-15T04:21:31;10.80;;;8.33;;
18455;SDS011;9357;49.900;8.208;2022-11-15T04:23:22;9.48;;;7.90;;
18455;SDS011;9357;49.900;8.208;2022-11-15T04:25:13;9.45;;;8.18;;
18455;SDS011;9357;49.900;8.208;2022-11-15T04:26:53;10.57;;;7.87;;
18455;SDS011;9357;49.900;8.208;2022-11-15T04:28:25;9.82;;;8.32;;
18455;SDS011;9357;49.900;8.208;2022-11-15T04:29:59;10.32;;;8.65;;
18455;SDS011;9357;49.900;8.208;2022-11-15T04:31:30;10.80;;;8.35;;
18455;SDS011;9357;49.900;8.208;2022-11-15T04:33:03;11.52;;;8.55;;
18455;SDS011;9357;49.900;8.208;2022-11-15T04:34:36;14.63;;;8.73;;
18455;SDS011;9357;49.900;8.208;2022-11-15T04:36:09;11.20;;;8.57;;
18455;SDS011;9357;49.900;8.208;2022-11-15T04:38:01;10.93;;;8.10;;
18455;SDS011;9357;49.900;8.208;2022-11-15T04:39:36;11.50;;;8.80;;
18455;SDS011;9357;49.900;8.208;2022-11-15T04:41:08;9.77;;;8.40;;
18455;SDS011;9357;49.900;8.208;2022-11-15T04:42:41;10.43;;;8.48;;
18455;SDS011;9357;49.900;8.208;2022-11-15T04:44:14;10.15;;;8.20;;
18455;SDS011;9357;49.900;8.208;2022-11-15T04:45:45;11.23;;;8.95;;
18455;SDS011;9357;49.900;8.208;2022-11-15T04:47:18;13.00;;;8.70;;
18455;SDS011;9357;49.900;8.208;2022-11-15T04:48:51;9.18;;;8.10;;
18455;SDS011;9357;49.900;8.208;2022-11-15T04:50:29;13.52;;;9.10;;
18455;SDS011;9357;49.900;8.208;2022-11-15T04:52:02;11.25;;;8.43;;
18455;SDS011;9357;49.900;8.208;2022-11-15T04:53:36;11.25;;;9.35;;
18455;SDS011;9357;49.900;8.208;2022-11-15T04:55:09;9.80;;;8.52;;
18455;SDS011;9357;49.900;8.208;2022-11-15T04:56:42;12.73;;;8.20;;
18455;SDS011;9357;49.900;8.208;2022-11-15T04:58:14;11.02;;;8.70;;
18455;SDS011;9357;49.900;8.208;2022-11-15T04:59:47;10.40;;;8.40;;
18455;SDS011;9357;49.900;8.208;2022-11-15T05:01:19;10.60;;;8.30;;
18455;SDS011;9357;49.900;8.208;2022-11-15T05:02:52;12.65;;;8.85;;
18455;SDS011;9357;49.900;8.208;2022-11-15T05:04:45;11.15;;;8.70;;
18455;SDS011;9357;49.900;8.208;2022-11-15T05:06:18;10.68;;;8.20;;
18455;SDS011;9357;49.900;8.208;2022-11-15T05:07:50;12.77;;;9.10;;
18455;SDS011;9357;49.900;8.208;2022-11-15T05:09:24;11.65;;;8.98;;
18455;SDS011;9357;49.900;8.208;2022-11-15T05:10:57;11.38;;;8.57;;
18455;SDS011;9357;49.900;8.208;2022-11-15T05:12:29;12.90;;;9.35;;
18455;SDS011;9357;49.900;8.208;2022-11-15T05:14:02;11.70;;;9.40;;
18455;SDS011;9357;49.900;8.208;2022-11-15T05:15:34;13.18;;;9.23;;
18455;SDS011;9357;49.900;8.208;2022-11-15T05:17:07;12.48;;;9.05;;
18455;SDS011;9357;49.900;8.208;2022-11-15T05:18:40;10.00;;;8.48;;
18455;SDS011;9357;49.900;8.208;2022-11-15T05:20:13;12.27;;;9.13;;
18455;SDS011;9357;49.900;8.208;2022-11-15T05:21:46;11.93;;;8.65;;
18455;SDS011;9357;49.900;8.208;2022-11-15T05:23:18;11.80;;;8.63;;
18455;SDS011;9357;49.900;8.208;2022-11-15T05:24:52;11.57;;;8.27;;
18455;SDS011;9357;49.900;8.208;2022-11-15T05:26:24;13.33;;;8.90;;
18455;SDS011;9357;49.900;8.208;2022-11-15T05:27:57;11.70;;;9.20;;
18455;SDS011;9357;49.900;8.208;2022-11-15T05:29:30;11.30;;;8.90;;
18455;SDS011;9357;49.900;8.208;2022-11-15T05:31:02;13.63;;;9.27;;
18455;SDS011;9357;49.900;8.208;2022-11-15T05:32:35;12.83;;;9.33;;
18455;SDS011;9357;49.900;8.208;2022-11-15T05:34:08;10.97;;;8.73;;
18455;SDS011;9357;49.900;8.208;2022-11-15T05:35:41;10.87;;;8.90;;
18455;SDS011;9357;49.900;8.208;2022-11-15T05:37:18;11.93;;;8.63;;
18455;SDS011;9357;49.900;8.208;2022-11-15T05:38:50;12.65;;;9.25;;
18455;SDS011;9357;49.900;8.208;2022-11-15T05:40:25;11.40;;;8.80;;
18455;SDS011;9357;49.900;8.208;2022-11-15T05:41:59;11.75;;;8.48;;
18455;SDS011;9357;49.900;8.208;2022-11-15T05:43:37;11.33;;;8.90;;
18455;SDS011;9357;49.900;8.208;2022-11-15T05:45:11;10.27;;;8.60;;
18455;SDS011;9357;49.900;8.208;2022-11-15T05:46:44;10.77;;;8.73;;
18455;SDS011;9357;49.900;8.208;2022-11-15T05:48:16;12.45;;;9.27;;
18455;SDS011;9357;49.900;8.208;2022-11-15T05:49:50;11.95;;;8.63;;
18455;SDS011;9357;49.900;8.208;2022-11-15T05:51:24;10.70;;;8.38;;
18455;SDS011;9357;49.900;8.208;2022-11-15T05:52:59;11.32;;;8.45;;
18455;SDS011;9357;49.900;8.208;2022-11-15T05:54:35;11.90;;;8.83;;
18455;SDS011;9357;49.900;8.208;2022-11-15T05:56:10;9.82;;;8.63;;
18455;SDS011;9357;49.900;8.208;2022-11-15T05:57:44;12.10;;;8.63;;
18455;SDS011;9357;49.900;8.208;2022-11-15T05:59:17;11.38;;;8.65;;
18455;SDS011;9357;49.900;8.208;2022-11-15T06:00:51;10.43;;;8.63;;
18455;SDS011;9357;49.900;8.208;2022-11-15T06:02:22;10.77;;;8.73;;
18455;SDS011;9357;49.900;8.208;2022-11-15T06:03:55;14.27;;;9.40;;
18455;SDS011;9357;49.900;8.208;2022-11-15T06:05:28;11.73;;;9.20;;
18455;SDS011;9357;49.900;8.208;2022-11-15T06:07:01;13.52;;;9.13;;
18455;SDS011;9357;49.900;8.208;2022-11-15T06:08:34;11.10;;;8.57;;
18455;SDS011;9357;49.900;8.208;2022-11-15T06:10:07;10.52;;;9.07;;
18455;SDS011;9357;49.900;8.208;2022-11-15T06:11:42;11.05;;;8.57;;
18455;SDS011;9357;49.900;8.208;2022-11-15T06:13:15;10.88;;;9.02;;
18455;SDS011;9357;49.900;8.208;2022-11-15T06:14:47;11.40;;;8.97;;
18455;SDS011;9357;49.900;8.208;2022-11-15T06:16:20;11.37;;;8.80;;
18455;SDS011;9357;49.900;8.208;2022-11-15T06:17:55;10.90;;;9.10;;
18455;SDS011;9357;49.900;8.208;2022-11-15T06:19:29;12.85;;;9.38;;
18455;SDS011;9357;49.900;8.208;2022-11-15T06:21:04;14.70;;;9.60;;
18455;SDS011;9357;49.900;8.208;2022-11-15T06:22:37;11.07;;;9.20;;
18455;SDS011;9357;49.900;8.208;2022-11-15T06:24:10;14.07;;;9.93;;
18455;SDS011;9357;49.900;8.208;2022-11-15T06:25:42;13.38;;;9.32;;
18455;SDS011;9357;49.900;8.208;2022-11-15T06:27:17;11.30;;;8.80;;
18455;SDS011;9357;49.900;8.208;2022-11-15T06:28:49;12.00;;;9.38;;
18455;SDS011;9357;49.900;8.208;2022-11-15T06:30:22;13.55;;;9.65;;
18455;SDS011;9357;49.900;8.208;2022-11-15T06:31:56;12.60;;;9.77;;
18455;SDS011;9357;49.900;8.208;2022-11-15T06:33:28;11.03;;;9.40;;
18455;SDS011;9357;49.900;8.208;2022-11-15T06:35:01;14.13;;;9.52;;
18455;SDS011;9357;49.900;8.208;2022-11-15T06:36:34;11.30;;;9.10;;
18455;SDS011;9357;49.900;8.208;2022-11-15T06:38:09;12.97;;;9.80;;
18455;SDS011;9357;49.900;8.208;2022-11-15T06:39:42;20.88;;;12.10;;
18455;SDS011;9357;49.900;8.208;2022-11-15T06:41:15;16.63;;;10.43;;
18455;SDS011;9357;49.900;8.208;2022-11-15T06:42:50;15.40;;;10.60;;
18455;SDS011;9357;49.900;8.208;2022-11-15T06:44:23;14.60;;;10.00;;
18455;SDS011;9357;49.900;8.208;2022-11-15T06:45:56;12.87;;;10.47;;
18455;SDS011;9357;49.900;8.208;2022-11-15T06:47:30;13.35;;;10.13;;
18455;SDS011;9357;49.900;8.208;2022-11-15T06:49:02;16.67;;;10.48;;
18455;SDS011;9357;49.900;8.208;2022-11-15T06:50:40;13.57;;;10.50;;
18455;SDS011;9357;49.900;8.208;2022-11-15T06:52:13;14.52;;;10.25;;
18455;SDS011;9357;49.900;8.208;2022-11-15T06:53:45;15.50;;;10.65;;
18455;SDS011;9357;49.900;8.208;2022-11-15T06:55:18;13.48;;;10.40;;
18455;SDS011;9357;49.900;8.208;2022-11-15T06:56:51;11.63;;;9.30;;
18455;SDS011;9357;49.900;8.208;2022-11-15T06:58:25;11.13;;;8.65;;
18455;SDS011;9357;49.900;8.208;2022-11-15T06:59:58;10.93;;;8.83;;
18455;SDS011;9357;49.900;8.208;2022-11-15T07:01:31;11.50;;;9.63;;
18455;SDS011;9357;49.900;8.208;2022-11-15T07:03:03;14.77;;;10.48;;
18455;SDS011;9357;49.900;8.208;2022-11-15T07:04:36;14.73;;;10.07;;
18455;SDS011;9357;49.900;8.208;2022-11-15T07:06:09;11.00;;;9.90;;
18455;SDS011;9357;49.900;8.208;2022-11-15T07:07:42;11.97;;;9.20;;
18455;SDS011;9357;49.900;8.208;2022-11-15T07:09:15;11.77;;;8.63;;
18455;SDS011;9357;49.900;8.208;2022-11-15T07:10:48;11.50;;;9.07;;
18455;SDS011;9357;49.900;8.208;2022-11-15T07:12:21;8.43;;;7.37;;
18455;SDS011;9357;49.900;8.208;2022-11-15T07:13:55;9.70;;;7.45;;
18455;SDS011;9357;49.900;8.208;2022-11-15T07:15:28;10.93;;;8.97;;
18455;SDS011;9357;49.900;8.208;2022-11-15T07:17:02;11.47;;;9.03;;
18455;SDS011;9357;49.900;8.208;2022-11-15T07:18:36;10.87;;;7.60;;
18455;SDS011;9357;49.900;8.208;2022-11-15T07:20:10;11.07;;;7.90;;
18455;SDS011;9357;49.900;8.208;2022-11-15T07:21:44;13.63;;;8.53;;
18455;SDS011;9357;49.900;8.208;2022-11-15T07:23:17;15.50;;;9.50;;
18455;SDS011;9357;49.900;8.208;2022-11-15T07:24:50;13.40;;;9.60;;
18455;SDS011;9357;49.900;8.208;2022-11-15T07:26:23;13.37;;;9.90;;
18455;SDS011;9357;49.900;8.208;2022-11-15T07:27:56;13.40;;;9.07;;
18455;SDS011;9357;49.900;8.208;2022-11-15T07:29:31;12.83;;;9.20;;
18455;SDS011;9357;49.900;8.208;2022-11-15T07:31:04;13.27;;;9.73;;
18455;SDS011;9357;49.900;8.208;2022-11-15T07:32:39;10.73;;;8.80;;
18455;SDS011;9357;49.900;8.208;2022-11-15T07:34:11;12.93;;;9.47;;
18455;SDS011;9357;49.900;8.208;2022-11-15T07:35:44;9.60;;;7.77;;
18455;SDS011;9357;49.900;8.208;2022-11-15T07:37:20;11.57;;;7.80;;
18455;SDS011;9357;49.900;8.208;2022-11-15T07:38:52;8.30;;;7.43;;
18455;SDS011;9357;49.900;8.208;2022-11-15T07:40:26;12.47;;;8.53;;
18455;SDS011;9357;49.900;8.208;2022-11-15T07:42:00;8.77;;;7.80;;
18455;SDS011;9357;49.900;8.208;2022-11-15T07:43:50;9.77;;;7.40;;
18455;SDS011;9357;49.900;8.208;2022-11-15T07:45:25;9.57;;;6.83;;
18455;SDS011;9357;49.900;8.208;2022-11-15T07:46:58;8.30;;;7.23;;
18455;SDS011;9357;49.900;8.208;2022-11-15T07:48:31;10.77;;;8.27;;
18455;SDS011;9357;49.900;8.208;2022-11-15T07:50:15;12.27;;;7.83;;
18455;SDS011;9357;49.900;8.208;2022-11-15T07:51:48;8.70;;;7.13;;
18455;SDS011;9357;49.900;8.208;2022-11-15T07:53:21;8.90;;;7.47;;
18455;SDS011;9357;49.900;8.208;2022-11-15T07:54:53;9.77;;;7.70;;
18455;SDS011;9357;49.900;8.208;2022-11-15T07:56:26;12.07;;;7.50;;
18455;SDS011;9357;49.900;8.208;2022-11-15T07:58:02;8.80;;;7.73;;
18455;SDS011;9357;49.900;8.208;2022-11-15T07:59:35;9.33;;;7.37;;
18455;SDS011;9357;49.900;8.208;2022-11-15T08:01:09;8.27;;;7.47;;
18455;SDS011;9357;49.900;8.208;2022-11-15T08:02:43;10.60;;;9.50;;
18455;SDS011;9357;49.900;8.208;2022-11-15T08:04:16;9.83;;;8.17;;
18455;SDS011;9357;49.900;8.208;2022-11-15T08:05:49;9.73;;;7.70;;
18455;SDS011;9357;49.900;8.208;2022-11-15T08:07:23;8.53;;;6.80;;
18455;SDS011;9357;49.900;8.208;2022-11-15T08:08:56;9.97;;;7.33;;
18455;SDS011;9357;49.900;8.208;2022-11-15T08:10:29;9.57;;;7.50;;
18455;SDS011;9357;49.900;8.208;2022-11-15T08:12:07;7.80;;;6.67;;
18455;SDS011;9357;49.900;8.208;2022-11-15T08:13:40;7.73;;;6.93;;
18455;SDS011;9357;49.900;8.208;2022-11-15T08:15:13;10.93;;;7.70;;
18455;SDS011;9357;49.900;8.208;2022-11-15T08:16:47;7.93;;;7.00;;
18455;SDS011;9357;49.900;8.208;2022-11-15T08:18:20;9.77;;;8.20;;
18455;SDS011;9357;49.900;8.208;2022-11-15T08:19:53;7.97;;;6.83;;
18455;SDS011;9357;49.900;8.208;2022-11-15T08:21:26;9.70;;;7.47;;
18455;SDS011;9357;49.900;8.208;2022-11-15T08:22:59;9.87;;;7.20;;
18455;SDS011;9357;49.900;8.208;2022-11-15T08:24:33;8.53;;;7.37;;
18455;SDS011;9357;49.900;8.208;2022-11-15T08:26:06;6.90;;;6.20;;
18455;SDS011;9357;49.900;8.208;2022-11-15T08:27:39;6.43;;;5.73;;
18455;SDS011;9357;49.900;8.208;2022-11-15T08:29:11;5.73;;;5.13;;
18455;SDS011;9357;49.900;8.208;2022-11-15T08:30:44;7.37;;;5.17;;
18455;SDS011;9357;49.900;8.208;2022-11-15T08:32:18;5.63;;;5.13;;
18455;SDS011;9357;49.900;8.208;2022-11-15T08:33:51;5.27;;;4.47;;
18455;SDS011;9357;49.900;8.208;2022-11-15T08:35:24;5.90;;;5.30;;
18455;SDS011;9357;49.900;8.208;2022-11-15T08:36:59;5.43;;;4.53;;
18455;SDS011;9357;49.900;8.208;2022-11-15T08:38:32;6.77;;;4.47;;
18455;SDS011;9357;49.900;8.208;2022-11-15T08:40:06;5.33;;;4.67;;
18455;SDS011;9357;49.900;8.208;2022-11-15T08:41:39;4.63;;;4.20;;
18455;SDS011;9357;49.900;8.208;2022-11-15T08:43:12;5.50;;;4.83;;
18455;SDS011;9357;49.900;8.208;2022-11-15T08:44:45;7.33;;;4.70;;
18455;SDS011;9357;49.900;8.208;2022-11-15T08:46:18;8.00;;;5.10;;
18455;SDS011;9357;49.900;8.208;2022-11-15T08:47:52;7.40;;;6.00;;
18455;SDS011;9357;49.900;8.208;2022-11-15T08:49:25;6.47;;;5.27;;
18455;SDS011;9357;49.900;8.208;2022-11-15T08:50:58;10.50;;;7.40;;
18455;SDS011;9357;49.900;8.208;2022-11-15T08:52:30;8.40;;;7.30;;
18455;SDS011;9357;49.900;8.208;2022-11-15T08:54:03;9.63;;;7.73;;
18455;SDS011;9357;49.900;8.208;2022-11-15T08:55:36;10.30;;;7.67;;
18455;SDS011;9357;49.900;8.208;2022-11-15T08:57:10;8.77;;;6.70;;
18455;SDS011;9357;49.900;8.208;2022-11-15T08:58:42;8.87;;;6.20;;
18455;SDS011;9357;49.900;8.208;2022-11-15T09:00:16;8.30;;;6.37;;
18455;SDS011;9357;49.900;8.208;2022-11-15T09:01:50;8.80;;;6.63;;
18455;SDS011;9357;49.900;8.208;2022-11-15T09:03:25;7.80;;;6.60;;
18455;SDS011;9357;49.900;8.208;2022-11-15T09:04:57;8.27;;;6.40;;
18455;SDS011;9357;49.900;8.208;2022-11-15T09:06:30;12.00;;;7.70;;
18455;SDS011;9357;49.900;8.208;2022-11-15T09:08:03;9.83;;;8.27;;
18455;SDS011;9357;49.900;8.208;2022-11-15T09:09:58;13.90;;;10.27;;
18455;SDS011;9357;49.900;8.208;2022-11-15T09:11:30;16.50;;;10.30;;
18455;SDS011;9357;49.900;8.208;2022-11-15T09:13:03;25.07;;;16.47;;
18455;SDS011;9357;49.900;8.208;2022-11-15T09:14:36;15.97;;;11.77;;
18455;SDS011;9357;49.900;8.208;2022-11-15T09:16:09;20.63;;;13.03;;
18455;SDS011;9357;49.900;8.208;2022-11-15T09:17:43;18.80;;;12.23;;
18455;SDS011;9357;49.900;8.208;2022-11-15T09:19:17;6.70;;;6.00;;
18455;SDS011;9357;49.900;8.208;2022-11-15T09:20:49;5.83;;;5.30;;
18455;SDS011;9357;49.900;8.208;2022-11-15T09:22:22;7.47;;;5.17;;
18455;SDS011;9357;49.900;8.208;2022-11-15T09:23:55;6.70;;;6.00;;
18455;SDS011;9357;49.900;8.208;2022-11-15T09:25:28;7.97;;;6.27;;
18455;SDS011;9357;49.900;8.208;2022-11-15T09:27:01;9.50;;;6.80;;
18455;SDS011;9357;49.900;8.208;2022-11-15T09:28:35;8.90;;;6.80;;
18455;SDS011;9357;49.900;8.208;2022-11-15T09:30:09;9.43;;;7.40;;
18455;SDS011;9357;49.900;8.208;2022-11-15T09:31:42;9.03;;;7.83;;
18455;SDS011;9357;49.900;8.208;2022-11-15T09:33:15;11.17;;;8.80;;
18455;SDS011;9357;49.900;8.208;2022-11-15T09:34:49;9.80;;;8.37;;
18455;SDS011;9357;49.900;8.208;2022-11-15T09:36:22;9.40;;;8.40;;